sensor_id;sensor_type;location;lat;lon;timestamp;P1;durP1;ratioP1;P2;durP2;ratioP2
32810;SDS011;65470;47.324;8.548;2023-07-09T00:02:17;6.05;;;4.65;;
32810;SDS011;65470;47.324;8.548;2023-07-09T00:04:43;12.32;;;5.18;;
32810;SDS011;65470;47.324;8.548;2023-07-09T00:07:21;7.43;;;5.22;;
32810;SDS011;65470;47.324;8.548;2023-07-09T00:09:47;5.65;;;4.97;;
32810;SDS011;65470;47.324;8.548;2023-07-09T00:12:14;8.23;;;4.70;;
32810;SDS011;65470;47.324;8.548;2023-07-09T00:14:41;8.02;;;4.72;;
32810;SDS011;65470;47.324;8.548;2023-07-09T00:17:09;7.22;;;4.78;;
32810;SDS011;65470;47.324;8.548;2023-07-09T00:19:55;7.75;;;5.53;;
32810;SDS011;65470;47.324;8.548;2023-07-09T00:22:21;10.85;;;5.70;;
32810;SDS011;65470;47.324;8.548;2023-07-09T00:24:48;13.00;;;5.25;;
32810;SDS011;65470;47.324;8.548;2023-07-09T00:27:19;6.82;;;4.65;;
32810;SDS011;65470;47.324;8.548;2023-07-09T00:29:46;6.35;;;4.75;;
32810;SDS011;65470;47.324;8.548;2023-07-09T00:32:13;9.40;;;5.10;;
32810;SDS011;65470;47.324;8.548;2023-07-09T00:34:41;5.75;;;5.07;;
32810;SDS011;65470;47.324;8.548;2023-07-09T00:37:16;6.55;;;5.18;;
32810;SDS011;65470;47.324;8.548;2023-07-09T00:39:44;11.70;;;5.70;;
32810;SDS011;65470;47.324;8.548;2023-07-09T00:42:14;7.05;;;5.40;;
32810;SDS011;65470;47.324;8.548;2023-07-09T00:44:43;6.00;;;4.47;;
32810;SDS011;65470;47.324;8.548;2023-07-09T00:50:49;8.05;;;5.60;;
32810;SDS011;65470;47.324;8.548;2023-07-09T00:52:59;7.88;;;5.32;;
32810;SDS011;65470;47.324;8.548;2023-07-09T00:55:32;8.18;;;5.35;;
32810;SDS011;65470;47.324;8.548;2023-07-09T00:58:03;6.50;;;5.03;;
32810;SDS011;65470;47.324;8.548;2023-07-09T01:00:43;6.90;;;5.35;;
32810;SDS011;65470;47.324;8.548;2023-07-09T01:03:15;10.25;;;4.80;;
32810;SDS011;65470;47.324;8.548;2023-07-09T01:05:47;8.30;;;5.50;;
32810;SDS011;65470;47.324;8.548;2023-07-09T01:08:17;9.35;;;5.32;;
32810;SDS011;65470;47.324;8.548;2023-07-09T01:10:44;7.55;;;5.28;;
32810;SDS011;65470;47.324;8.548;2023-07-09T01:13:10;7.38;;;4.85;;
32810;SDS011;65470;47.324;8.548;2023-07-09T01:15:36;9.27;;;5.15;;
32810;SDS011;65470;47.324;8.548;2023-07-09T01:18:03;8.70;;;5.22;;
32810;SDS011;65470;47.324;8.548;2023-07-09T01:20:29;11.32;;;4.88;;
32810;SDS011;65470;47.324;8.548;2023-07-09T01:22:55;11.23;;;5.50;;
32810;SDS011;65470;47.324;8.548;2023-07-09T01:25:22;7.40;;;4.90;;
32810;SDS011;65470;47.324;8.548;2023-07-09T01:27:49;10.90;;;5.72;;
32810;SDS011;65470;47.324;8.548;2023-07-09T01:30:17;8.82;;;5.53;;
32810;SDS011;65470;47.324;8.548;2023-07-09T01:32:55;10.65;;;5.50;;
32810;SDS011;65470;47.324;8.548;2023-07-09T01:35:23;10.05;;;5.57;;
32810;SDS011;65470;47.324;8.548;2023-07-09T01:37:51;8.20;;;5.32;;
32810;SDS011;65470;47.324;8.548;2023-07-09T01:40:17;8.30;;;6.05;;
32810;SDS011;65470;47.324;8.548;2023-07-09T01:42:45;9.63;;;5.53;;
32810;SDS011;65470;47.324;8.548;2023-07-09T01:45:11;9.48;;;5.65;;
32810;SDS011;65470;47.324;8.548;2023-07-09T01:47:38;9.30;;;6.00;;
32810;SDS011;65470;47.324;8.548;2023-07-09T01:50:07;11.73;;;5.88;;
32810;SDS011;65470;47.324;8.548;2023-07-09T01:52:34;6.03;;;5.32;;
32810;SDS011;65470;47.324;8.548;2023-07-09T01:55:02;9.80;;;6.13;;
32810;SDS011;65470;47.324;8.548;2023-07-09T01:57:29;7.93;;;6.10;;
32810;SDS011;65470;47.324;8.548;2023-07-09T02:00:02;8.45;;;5.07;;
32810;SDS011;65470;47.324;8.548;2023-07-09T02:03:07;11.23;;;6.00;;
32810;SDS011;65470;47.324;8.548;2023-07-09T02:05:35;9.68;;;5.82;;
32810;SDS011;65470;47.324;8.548;2023-07-09T02:08:01;7.95;;;6.20;;
32810;SDS011;65470;47.324;8.548;2023-07-09T02:10:28;9.68;;;5.68;;
32810;SDS011;65470;47.324;8.548;2023-07-09T02:12:53;8.25;;;6.05;;
32810;SDS011;65470;47.324;8.548;2023-07-09T02:15:19;5.97;;;5.28;;
32810;SDS011;65470;47.324;8.548;2023-07-09T02:17:45;7.88;;;6.68;;
32810;SDS011;65470;47.324;8.548;2023-07-09T02:20:11;7.97;;;5.97;;
32810;SDS011;65470;47.324;8.548;2023-07-09T02:22:38;6.72;;;5.75;;
32810;SDS011;65470;47.324;8.548;2023-07-09T02:25:05;9.32;;;5.82;;
32810;SDS011;65470;47.324;8.548;2023-07-09T02:27:32;8.18;;;5.28;;
32810;SDS011;65470;47.324;8.548;2023-07-09T02:29:58;9.95;;;6.07;;
32810;SDS011;65470;47.324;8.548;2023-07-09T02:32:25;9.35;;;5.72;;
32810;SDS011;65470;47.324;8.548;2023-07-09T02:34:52;6.75;;;5.10;;
32810;SDS011;65470;47.324;8.548;2023-07-09T02:37:20;6.70;;;5.20;;
32810;SDS011;65470;47.324;8.548;2023-07-09T02:39:47;7.72;;;5.05;;
32810;SDS011;65470;47.324;8.548;2023-07-09T02:42:14;10.60;;;5.53;;
32810;SDS011;65470;47.324;8.548;2023-07-09T02:44:41;6.55;;;5.50;;
32810;SDS011;65470;47.324;8.548;2023-07-09T02:47:08;6.15;;;5.07;;
32810;SDS011;65470;47.324;8.548;2023-07-09T02:49:35;6.95;;;5.63;;
32810;SDS011;65470;47.324;8.548;2023-07-09T02:52:01;8.45;;;5.78;;
32810;SDS011;65470;47.324;8.548;2023-07-09T02:54:27;9.30;;;5.82;;
32810;SDS011;65470;47.324;8.548;2023-07-09T02:56:53;6.47;;;5.85;;
32810;SDS011;65470;47.324;8.548;2023-07-09T02:59:19;9.70;;;5.78;;
32810;SDS011;65470;47.324;8.548;2023-07-09T03:01:45;11.60;;;6.10;;
32810;SDS011;65470;47.324;8.548;2023-07-09T03:04:12;6.97;;;5.78;;
32810;SDS011;65470;47.324;8.548;2023-07-09T03:06:41;9.68;;;5.75;;
32810;SDS011;65470;47.324;8.548;2023-07-09T03:09:07;7.55;;;5.95;;
32810;SDS011;65470;47.324;8.548;2023-07-09T03:11:34;8.35;;;5.80;;
32810;SDS011;65470;47.324;8.548;2023-07-09T03:14:00;10.25;;;5.85;;
32810;SDS011;65470;47.324;8.548;2023-07-09T03:16:27;7.75;;;5.95;;
32810;SDS011;65470;47.324;8.548;2023-07-09T03:18:54;9.20;;;5.93;;
32810;SDS011;65470;47.324;8.548;2023-07-09T03:21:21;9.05;;;5.80;;
32810;SDS011;65470;47.324;8.548;2023-07-09T03:23:47;10.05;;;6.60;;
32810;SDS011;65470;47.324;8.548;2023-07-09T03:26:13;7.53;;;6.72;;
32810;SDS011;65470;47.324;8.548;2023-07-09T03:28:40;8.70;;;6.70;;
32810;SDS011;65470;47.324;8.548;2023-07-09T03:31:06;12.40;;;6.90;;
32810;SDS011;65470;47.324;8.548;2023-07-09T03:33:31;7.03;;;6.22;;
32810;SDS011;65470;47.324;8.548;2023-07-09T03:35:57;9.00;;;6.75;;
32810;SDS011;65470;47.324;8.548;2023-07-09T03:38:22;10.90;;;6.20;;
32810;SDS011;65470;47.324;8.548;2023-07-09T03:40:52;9.35;;;6.20;;
32810;SDS011;65470;47.324;8.548;2023-07-09T03:43:19;11.45;;;6.65;;
32810;SDS011;65470;47.324;8.548;2023-07-09T03:45:45;7.22;;;6.43;;
32810;SDS011;65470;47.324;8.548;2023-07-09T03:48:12;8.68;;;6.60;;
32810;SDS011;65470;47.324;8.548;2023-07-09T03:50:39;9.38;;;6.13;;
32810;SDS011;65470;47.324;8.548;2023-07-09T03:53:04;13.73;;;7.38;;
32810;SDS011;65470;47.324;8.548;2023-07-09T03:55:30;8.88;;;6.30;;
32810;SDS011;65470;47.324;8.548;2023-07-09T03:57:57;9.85;;;6.40;;
32810;SDS011;65470;47.324;8.548;2023-07-09T04:00:23;7.75;;;6.75;;
32810;SDS011;65470;47.324;8.548;2023-07-09T04:02:50;7.93;;;6.18;;
32810;SDS011;65470;47.324;8.548;2023-07-09T04:05:16;9.10;;;6.43;;
32810;SDS011;65470;47.324;8.548;2023-07-09T04:07:43;11.30;;;6.13;;
32810;SDS011;65470;47.324;8.548;2023-07-09T04:10:09;8.70;;;6.47;;
32810;SDS011;65470;47.324;8.548;2023-07-09T04:12:36;8.60;;;6.35;;
32810;SDS011;65470;47.324;8.548;2023-07-09T04:15:02;8.35;;;6.47;;
32810;SDS011;65470;47.324;8.548;2023-07-09T04:17:29;9.50;;;6.63;;
32810;SDS011;65470;47.324;8.548;2023-07-09T04:19:54;9.20;;;6.18;;
32810;SDS011;65470;47.324;8.548;2023-07-09T04:22:20;11.55;;;6.22;;
32810;SDS011;65470;47.324;8.548;2023-07-09T04:24:46;8.50;;;6.30;;
32810;SDS011;65470;47.324;8.548;2023-07-09T04:27:12;8.52;;;6.60;;
32810;SDS011;65470;47.324;8.548;2023-07-09T04:29:39;9.65;;;7.13;;
32810;SDS011;65470;47.324;8.548;2023-07-09T04:32:12;11.45;;;7.25;;
32810;SDS011;65470;47.324;8.548;2023-07-09T04:34:39;10.32;;;6.88;;
32810;SDS011;65470;47.324;8.548;2023-07-09T04:37:09;11.57;;;7.50;;
32810;SDS011;65470;47.324;8.548;2023-07-09T04:39:37;10.65;;;7.05;;
32810;SDS011;65470;47.324;8.548;2023-07-09T04:42:03;11.27;;;7.10;;
32810;SDS011;65470;47.324;8.548;2023-07-09T04:44:29;8.40;;;6.05;;
32810;SDS011;65470;47.324;8.548;2023-07-09T04:46:55;9.07;;;6.25;;
32810;SDS011;65470;47.324;8.548;2023-07-09T04:49:21;8.32;;;6.50;;
32810;SDS011;65470;47.324;8.548;2023-07-09T04:51:46;9.60;;;7.05;;
32810;SDS011;65470;47.324;8.548;2023-07-09T04:54:12;12.20;;;6.55;;
32810;SDS011;65470;47.324;8.548;2023-07-09T04:56:40;8.23;;;6.90;;
32810;SDS011;65470;47.324;8.548;2023-07-09T04:59:09;8.73;;;6.22;;
32810;SDS011;65470;47.324;8.548;2023-07-09T05:01:34;9.18;;;7.13;;
32810;SDS011;65470;47.324;8.548;2023-07-09T05:04:00;10.13;;;6.43;;
32810;SDS011;65470;47.324;8.548;2023-07-09T05:06:25;8.38;;;6.43;;
32810;SDS011;65470;47.324;8.548;2023-07-09T05:08:51;16.25;;;7.53;;
32810;SDS011;65470;47.324;8.548;2023-07-09T05:11:17;11.18;;;6.63;;
32810;SDS011;65470;47.324;8.548;2023-07-09T05:13:42;10.82;;;6.32;;
32810;SDS011;65470;47.324;8.548;2023-07-09T05:16:08;8.70;;;6.40;;
32810;SDS011;65470;47.324;8.548;2023-07-09T05:18:34;9.23;;;6.40;;
32810;SDS011;65470;47.324;8.548;2023-07-09T05:20:59;9.20;;;7.30;;
32810;SDS011;65470;47.324;8.548;2023-07-09T05:23:25;10.63;;;7.72;;
32810;SDS011;65470;47.324;8.548;2023-07-09T05:26:00;12.20;;;7.15;;
32810;SDS011;65470;47.324;8.548;2023-07-09T05:28:27;11.75;;;7.65;;
32810;SDS011;65470;47.324;8.548;2023-07-09T05:30:53;11.13;;;8.32;;
32810;SDS011;65470;47.324;8.548;2023-07-09T05:33:19;13.10;;;7.72;;
32810;SDS011;65470;47.324;8.548;2023-07-09T05:35:45;11.57;;;7.47;;
32810;SDS011;65470;47.324;8.548;2023-07-09T05:38:12;11.65;;;8.32;;
32810;SDS011;65470;47.324;8.548;2023-07-09T05:40:38;13.80;;;7.75;;
32810;SDS011;65470;47.324;8.548;2023-07-09T05:43:04;9.57;;;7.35;;
32810;SDS011;65470;47.324;8.548;2023-07-09T05:45:30;11.48;;;7.00;;
32810;SDS011;65470;47.324;8.548;2023-07-09T05:47:57;11.02;;;7.68;;
32810;SDS011;65470;47.324;8.548;2023-07-09T05:50:23;14.30;;;8.23;;
32810;SDS011;65470;47.324;8.548;2023-07-09T05:52:48;14.40;;;8.30;;
32810;SDS011;65470;47.324;8.548;2023-07-09T05:55:14;11.20;;;8.00;;
32810;SDS011;65470;47.324;8.548;2023-07-09T05:57:40;11.27;;;7.80;;
32810;SDS011;65470;47.324;8.548;2023-07-09T06:00:06;11.20;;;7.20;;
32810;SDS011;65470;47.324;8.548;2023-07-09T06:02:34;7.70;;;6.88;;
32810;SDS011;65470;47.324;8.548;2023-07-09T06:04:59;11.40;;;6.93;;
32810;SDS011;65470;47.324;8.548;2023-07-09T06:07:25;11.05;;;7.28;;
32810;SDS011;65470;47.324;8.548;2023-07-09T06:09:51;11.93;;;7.50;;
32810;SDS011;65470;47.324;8.548;2023-07-09T06:12:17;11.77;;;7.78;;
32810;SDS011;65470;47.324;8.548;2023-07-09T06:14:44;11.05;;;7.65;;
32810;SDS011;65470;47.324;8.548;2023-07-09T06:17:10;10.10;;;7.38;;
32810;SDS011;65470;47.324;8.548;2023-07-09T06:19:36;9.40;;;6.95;;
32810;SDS011;65470;47.324;8.548;2023-07-09T06:22:02;11.07;;;7.80;;
32810;SDS011;65470;47.324;8.548;2023-07-09T06:24:28;11.15;;;7.50;;
32810;SDS011;65470;47.324;8.548;2023-07-09T06:26:53;12.05;;;7.40;;
32810;SDS011;65470;47.324;8.548;2023-07-09T06:29:19;10.20;;;7.45;;
32810;SDS011;65470;47.324;8.548;2023-07-09T06:31:45;10.80;;;8.15;;
32810;SDS011;65470;47.324;8.548;2023-07-09T06:34:10;12.07;;;7.47;;
32810;SDS011;65470;47.324;8.548;2023-07-09T06:36:36;12.02;;;7.10;;
32810;SDS011;65470;47.324;8.548;2023-07-09T06:39:02;11.55;;;7.05;;
32810;SDS011;65470;47.324;8.548;2023-07-09T06:41:29;10.68;;;7.13;;
32810;SDS011;65470;47.324;8.548;2023-07-09T06:43:54;14.60;;;7.43;;
32810;SDS011;65470;47.324;8.548;2023-07-09T06:46:20;9.63;;;7.10;;
32810;SDS011;65470;47.324;8.548;2023-07-09T06:48:46;10.10;;;5.80;;
32810;SDS011;65470;47.324;8.548;2023-07-09T06:51:12;7.53;;;5.55;;
32810;SDS011;65470;47.324;8.548;2023-07-09T06:53:37;10.98;;;5.65;;
32810;SDS011;65470;47.324;8.548;2023-07-09T06:56:04;6.93;;;5.90;;
32810;SDS011;65470;47.324;8.548;2023-07-09T06:58:31;6.88;;;5.55;;
32810;SDS011;65470;47.324;8.548;2023-07-09T07:00:59;10.50;;;5.43;;
32810;SDS011;65470;47.324;8.548;2023-07-09T07:03:28;6.75;;;5.28;;
32810;SDS011;65470;47.324;8.548;2023-07-09T07:05:54;9.30;;;5.68;;
32810;SDS011;65470;47.324;8.548;2023-07-09T07:08:20;7.45;;;5.40;;
32810;SDS011;65470;47.324;8.548;2023-07-09T07:10:50;7.93;;;5.35;;
32810;SDS011;65470;47.324;8.548;2023-07-09T07:13:28;8.32;;;5.07;;
32810;SDS011;65470;47.324;8.548;2023-07-09T07:15:57;7.57;;;5.03;;
32810;SDS011;65470;47.324;8.548;2023-07-09T07:18:23;10.30;;;5.82;;
32810;SDS011;65470;47.324;8.548;2023-07-09T07:20:49;9.15;;;5.22;;
32810;SDS011;65470;47.324;8.548;2023-07-09T07:23:15;6.68;;;4.75;;
32810;SDS011;65470;47.324;8.548;2023-07-09T07:25:41;4.90;;;4.40;;
32810;SDS011;65470;47.324;8.548;2023-07-09T07:28:06;6.75;;;5.13;;
32810;SDS011;65470;47.324;8.548;2023-07-09T07:30:32;9.90;;;6.13;;
32810;SDS011;65470;47.324;8.548;2023-07-09T07:32:58;8.48;;;5.65;;
32810;SDS011;65470;47.324;8.548;2023-07-09T07:35:24;6.20;;;5.25;;
32810;SDS011;65470;47.324;8.548;2023-07-09T07:37:50;7.22;;;5.18;;
32810;SDS011;65470;47.324;8.548;2023-07-09T07:40:15;11.32;;;5.40;;
32810;SDS011;65470;47.324;8.548;2023-07-09T07:42:41;5.85;;;5.15;;
32810;SDS011;65470;47.324;8.548;2023-07-09T07:45:07;10.00;;;5.20;;
32810;SDS011;65470;47.324;8.548;2023-07-09T07:47:33;7.93;;;5.35;;
32810;SDS011;65470;47.324;8.548;2023-07-09T07:49:59;7.50;;;5.72;;
32810;SDS011;65470;47.324;8.548;2023-07-09T07:52:24;6.68;;;5.40;;
32810;SDS011;65470;47.324;8.548;2023-07-09T07:54:51;27.50;;;5.43;;
32810;SDS011;65470;47.324;8.548;2023-07-09T07:57:17;7.13;;;4.90;;
32810;SDS011;65470;47.324;8.548;2023-07-09T07:59:43;6.20;;;5.18;;
32810;SDS011;65470;47.324;8.548;2023-07-09T08:02:12;8.27;;;5.40;;
32810;SDS011;65470;47.324;8.548;2023-07-09T08:04:39;7.88;;;5.00;;
32810;SDS011;65470;47.324;8.548;2023-07-09T08:07:09;6.00;;;5.28;;
32810;SDS011;65470;47.324;8.548;2023-07-09T08:09:36;7.13;;;4.88;;
32810;SDS011;65470;47.324;8.548;2023-07-09T08:12:05;9.25;;;5.25;;
32810;SDS011;65470;47.324;8.548;2023-07-09T08:14:36;5.45;;;4.90;;
32810;SDS011;65470;47.324;8.548;2023-07-09T08:17:02;9.07;;;5.57;;
32810;SDS011;65470;47.324;8.548;2023-07-09T08:19:28;6.18;;;5.07;;
32810;SDS011;65470;47.324;8.548;2023-07-09T08:21:53;6.38;;;4.95;;
32810;SDS011;65470;47.324;8.548;2023-07-09T08:24:19;6.53;;;4.85;;
32810;SDS011;65470;47.324;8.548;2023-07-09T08:26:45;7.63;;;4.95;;
32810;SDS011;65470;47.324;8.548;2023-07-09T08:29:10;6.95;;;4.43;;
32810;SDS011;65470;47.324;8.548;2023-07-09T08:31:36;6.03;;;4.90;;
32810;SDS011;65470;47.324;8.548;2023-07-09T08:34:02;6.95;;;4.95;;
32810;SDS011;65470;47.324;8.548;2023-07-09T08:36:27;9.38;;;5.20;;
32810;SDS011;65470;47.324;8.548;2023-07-09T08:38:53;5.88;;;5.13;;
32810;SDS011;65470;47.324;8.548;2023-07-09T08:44:28;6.18;;;4.53;;
32810;SDS011;65470;47.324;8.548;2023-07-09T08:50:04;5.85;;;4.72;;
32810;SDS011;65470;47.324;8.548;2023-07-09T08:52:45;5.60;;;4.82;;
32810;SDS011;65470;47.324;8.548;2023-07-09T08:55:23;5.40;;;4.82;;
32810;SDS011;65470;47.324;8.548;2023-07-09T09:00:30;7.65;;;5.30;;
32810;SDS011;65470;47.324;8.548;2023-07-09T09:05:49;7.65;;;5.60;;
32810;SDS011;65470;47.324;8.548;2023-07-09T09:11:49;5.88;;;4.47;;
32810;SDS011;65470;47.324;8.548;2023-07-09T09:14:01;4.82;;;4.32;;
32810;SDS011;65470;47.324;8.548;2023-07-09T09:16:35;6.97;;;4.47;;
32810;SDS011;65470;47.324;8.548;2023-07-09T09:19:05;5.97;;;4.50;;
32810;SDS011;65470;47.324;8.548;2023-07-09T09:22:15;8.60;;;5.43;;
32810;SDS011;65470;47.324;8.548;2023-07-09T09:27:52;7.20;;;5.00;;
32810;SDS011;65470;47.324;8.548;2023-07-09T09:30:19;9.35;;;5.45;;
32810;SDS011;65470;47.324;8.548;2023-07-09T09:32:55;6.15;;;4.93;;
32810;SDS011;65470;47.324;8.548;2023-07-09T09:35:35;10.88;;;5.63;;
32810;SDS011;65470;47.324;8.548;2023-07-09T09:38:08;5.53;;;4.63;;
32810;SDS011;65470;47.324;8.548;2023-07-09T09:40:52;7.57;;;5.20;;
32810;SDS011;65470;47.324;8.548;2023-07-09T09:43:31;7.53;;;5.60;;
32810;SDS011;65470;47.324;8.548;2023-07-09T09:45:58;6.88;;;5.05;;
32810;SDS011;65470;47.324;8.548;2023-07-09T09:48:28;5.70;;;5.13;;
32810;SDS011;65470;47.324;8.548;2023-07-09T09:50:56;6.70;;;5.50;;
32810;SDS011;65470;47.324;8.548;2023-07-09T09:53:26;7.22;;;4.57;;
32810;SDS011;65470;47.324;8.548;2023-07-09T09:55:55;9.70;;;5.20;;
32810;SDS011;65470;47.324;8.548;2023-07-09T09:58:28;5.70;;;5.05;;
32810;SDS011;65470;47.324;8.548;2023-07-09T10:00:55;7.85;;;4.78;;
32810;SDS011;65470;47.324;8.548;2023-07-09T10:03:36;5.93;;;5.07;;
32810;SDS011;65470;47.324;8.548;2023-07-09T10:06:06;12.38;;;7.82;;
32810;SDS011;65470;47.324;8.548;2023-07-09T10:14:12;11.27;;;5.53;;
32810;SDS011;65470;47.324;8.548;2023-07-09T10:17:04;13.90;;;5.30;;
32810;SDS011;65470;47.324;8.548;2023-07-09T10:19:41;5.65;;;5.00;;
32810;SDS011;65470;47.324;8.548;2023-07-09T10:30:37;8.00;;;4.95;;
32810;SDS011;65470;47.324;8.548;2023-07-09T10:39:14;6.40;;;5.07;;
32810;SDS011;65470;47.324;8.548;2023-07-09T10:41:47;15.55;;;6.75;;
32810;SDS011;65470;47.324;8.548;2023-07-09T10:44:16;6.53;;;4.90;;
32810;SDS011;65470;47.324;8.548;2023-07-09T10:46:47;7.63;;;5.72;;
32810;SDS011;65470;47.324;8.548;2023-07-09T10:49:18;6.70;;;4.90;;
32810;SDS011;65470;47.324;8.548;2023-07-09T10:51:52;6.97;;;4.80;;
32810;SDS011;65470;47.324;8.548;2023-07-09T10:59:57;8.68;;;4.72;;
32810;SDS011;65470;47.324;8.548;2023-07-09T11:02:24;11.40;;;4.78;;
32810;SDS011;65470;47.324;8.548;2023-07-09T11:05:04;10.02;;;5.43;;
32810;SDS011;65470;47.324;8.548;2023-07-09T11:07:35;8.32;;;4.97;;
32810;SDS011;65470;47.324;8.548;2023-07-09T11:10:11;6.78;;;4.88;;
32810;SDS011;65470;47.324;8.548;2023-07-09T11:13:13;6.22;;;5.05;;
32810;SDS011;65470;47.324;8.548;2023-07-09T11:15:41;5.18;;;4.68;;
32810;SDS011;65470;47.324;8.548;2023-07-09T11:18:11;7.20;;;5.05;;
32810;SDS011;65470;47.324;8.548;2023-07-09T11:21:04;11.80;;;5.20;;
32810;SDS011;65470;47.324;8.548;2023-07-09T11:23:43;8.68;;;5.00;;
32810;SDS011;65470;47.324;8.548;2023-07-09T11:26:22;11.18;;;5.55;;
32810;SDS011;65470;47.324;8.548;2023-07-09T11:28:54;8.38;;;4.90;;
32810;SDS011;65470;47.324;8.548;2023-07-09T11:31:35;7.13;;;4.88;;
32810;SDS011;65470;47.324;8.548;2023-07-09T11:36:57;7.43;;;5.32;;
32810;SDS011;65470;47.324;8.548;2023-07-09T11:41:55;5.82;;;5.03;;
32810;SDS011;65470;47.324;8.548;2023-07-09T11:44:29;8.50;;;5.10;;
32810;SDS011;65470;47.324;8.548;2023-07-09T11:49:48;8.30;;;5.28;;
32810;SDS011;65470;47.324;8.548;2023-07-09T11:52:15;6.50;;;4.75;;
32810;SDS011;65470;47.324;8.548;2023-07-09T11:54:46;7.78;;;5.20;;
32810;SDS011;65470;47.324;8.548;2023-07-09T11:57:12;6.28;;;4.82;;
32810;SDS011;65470;47.324;8.548;2023-07-09T11:59:41;5.90;;;4.57;;
32810;SDS011;65470;47.324;8.548;2023-07-09T12:02:19;7.72;;;5.15;;
32810;SDS011;65470;47.324;8.548;2023-07-09T12:04:47;10.15;;;4.30;;
32810;SDS011;65470;47.324;8.548;2023-07-09T12:07:14;10.25;;;4.45;;
32810;SDS011;65470;47.324;8.548;2023-07-09T12:09:43;5.50;;;4.03;;
32810;SDS011;65470;47.324;8.548;2023-07-09T12:12:23;7.82;;;4.63;;
32810;SDS011;65470;47.324;8.548;2023-07-09T12:14:50;5.80;;;3.85;;
32810;SDS011;65470;47.324;8.548;2023-07-09T12:17:16;14.13;;;5.18;;
32810;SDS011;65470;47.324;8.548;2023-07-09T12:19:43;5.63;;;4.00;;
32810;SDS011;65470;47.324;8.548;2023-07-09T12:22:21;8.63;;;4.07;;
32810;SDS011;65470;47.324;8.548;2023-07-09T12:24:48;4.90;;;3.38;;
32810;SDS011;65470;47.324;8.548;2023-07-09T12:27:19;5.88;;;4.40;;
32810;SDS011;65470;47.324;8.548;2023-07-09T12:29:50;7.00;;;5.20;;
32810;SDS011;65470;47.324;8.548;2023-07-09T12:32:20;9.60;;;5.20;;
32810;SDS011;65470;47.324;8.548;2023-07-09T12:34:51;6.18;;;4.05;;
32810;SDS011;65470;47.324;8.548;2023-07-09T12:37:19;6.60;;;3.78;;
32810;SDS011;65470;47.324;8.548;2023-07-09T12:39:47;8.00;;;3.67;;
32810;SDS011;65470;47.324;8.548;2023-07-09T12:42:17;7.00;;;4.05;;
32810;SDS011;65470;47.324;8.548;2023-07-09T12:44:45;9.27;;;4.07;;
32810;SDS011;65470;47.324;8.548;2023-07-09T12:47:14;9.00;;;3.85;;
32810;SDS011;65470;47.324;8.548;2023-07-09T12:49:41;6.25;;;3.75;;
32810;SDS011;65470;47.324;8.548;2023-07-09T12:52:13;7.95;;;3.78;;
32810;SDS011;65470;47.324;8.548;2023-07-09T12:55:05;9.07;;;3.83;;
32810;SDS011;65470;47.324;8.548;2023-07-09T12:57:30;8.95;;;4.20;;
32810;SDS011;65470;47.324;8.548;2023-07-09T12:59:56;7.43;;;3.83;;
32810;SDS011;65470;47.324;8.548;2023-07-09T13:02:24;7.88;;;3.65;;
32810;SDS011;65470;47.324;8.548;2023-07-09T13:05:00;7.75;;;3.55;;
32810;SDS011;65470;47.324;8.548;2023-07-09T13:07:41;7.55;;;3.50;;
32810;SDS011;65470;47.324;8.548;2023-07-09T13:10:22;6.10;;;3.13;;
32810;SDS011;65470;47.324;8.548;2023-07-09T13:12:51;6.45;;;3.15;;
32810;SDS011;65470;47.324;8.548;2023-07-09T13:15:19;5.80;;;3.45;;
32810;SDS011;65470;47.324;8.548;2023-07-09T13:17:56;7.00;;;3.53;;
32810;SDS011;65470;47.324;8.548;2023-07-09T13:20:22;12.00;;;5.07;;
32810;SDS011;65470;47.324;8.548;2023-07-09T13:22:48;4.93;;;3.58;;
32810;SDS011;65470;47.324;8.548;2023-07-09T13:25:13;8.38;;;3.58;;
32810;SDS011;65470;47.324;8.548;2023-07-09T13:27:39;5.95;;;3.65;;
32810;SDS011;65470;47.324;8.548;2023-07-09T13:30:05;7.10;;;4.03;;
32810;SDS011;65470;47.324;8.548;2023-07-09T13:32:31;8.05;;;3.38;;
32810;SDS011;65470;47.324;8.548;2023-07-09T13:34:57;6.32;;;3.90;;
32810;SDS011;65470;47.324;8.548;2023-07-09T13:37:22;8.63;;;3.80;;
32810;SDS011;65470;47.324;8.548;2023-07-09T13:39:48;6.28;;;3.55;;
32810;SDS011;65470;47.324;8.548;2023-07-09T13:42:15;6.35;;;4.05;;
32810;SDS011;65470;47.324;8.548;2023-07-09T13:44:43;4.78;;;3.90;;
32810;SDS011;65470;47.324;8.548;2023-07-09T13:47:13;7.18;;;4.07;;
32810;SDS011;65470;47.324;8.548;2023-07-09T13:49:41;7.68;;;3.70;;
32810;SDS011;65470;47.324;8.548;2023-07-09T13:52:13;5.75;;;3.90;;
32810;SDS011;65470;47.324;8.548;2023-07-09T13:54:40;8.65;;;3.70;;
32810;SDS011;65470;47.324;8.548;2023-07-09T13:57:09;11.45;;;3.97;;
32810;SDS011;65470;47.324;8.548;2023-07-09T13:59:38;6.40;;;4.30;;
32810;SDS011;65470;47.324;8.548;2023-07-09T14:02:07;6.18;;;4.00;;
32810;SDS011;65470;47.324;8.548;2023-07-09T14:04:44;7.55;;;3.92;;
32810;SDS011;65470;47.324;8.548;2023-07-09T14:07:20;10.77;;;3.72;;
32810;SDS011;65470;47.324;8.548;2023-07-09T14:09:57;6.55;;;4.15;;
32810;SDS011;65470;47.324;8.548;2023-07-09T14:12:23;8.75;;;3.90;;
32810;SDS011;65470;47.324;8.548;2023-07-09T14:14:50;6.45;;;4.30;;
32810;SDS011;65470;47.324;8.548;2023-07-09T14:17:16;9.48;;;4.50;;
32810;SDS011;65470;47.324;8.548;2023-07-09T14:19:42;10.10;;;4.63;;
32810;SDS011;65470;47.324;8.548;2023-07-09T14:24:56;5.22;;;4.30;;
32810;SDS011;65470;47.324;8.548;2023-07-09T14:27:22;8.82;;;4.53;;
32810;SDS011;65470;47.324;8.548;2023-07-09T14:29:47;9.40;;;4.30;;
32810;SDS011;65470;47.324;8.548;2023-07-09T14:34:53;6.90;;;3.78;;
32810;SDS011;65470;47.324;8.548;2023-07-09T14:37:19;4.88;;;3.70;;
32810;SDS011;65470;47.324;8.548;2023-07-09T14:39:44;10.48;;;4.30;;
32810;SDS011;65470;47.324;8.548;2023-07-09T14:42:11;8.30;;;4.45;;
32810;SDS011;65470;47.324;8.548;2023-07-09T14:44:39;9.27;;;3.70;;
32810;SDS011;65470;47.324;8.548;2023-07-09T14:47:10;6.05;;;4.40;;
32810;SDS011;65470;47.324;8.548;2023-07-09T14:49:44;6.60;;;4.20;;
32810;SDS011;65470;47.324;8.548;2023-07-09T14:52:12;5.82;;;3.60;;
32810;SDS011;65470;47.324;8.548;2023-07-09T14:54:42;7.07;;;3.95;;
32810;SDS011;65470;47.324;8.548;2023-07-09T14:57:27;5.10;;;3.35;;
32810;SDS011;65470;47.324;8.548;2023-07-09T14:59:55;9.23;;;4.00;;
32810;SDS011;65470;47.324;8.548;2023-07-09T15:04:55;5.38;;;3.75;;
32810;SDS011;65470;47.324;8.548;2023-07-09T15:07:21;8.30;;;3.97;;
32810;SDS011;65470;47.324;8.548;2023-07-09T15:09:47;6.45;;;3.63;;
32810;SDS011;65470;47.324;8.548;2023-07-09T15:12:15;5.93;;;3.80;;
32810;SDS011;65470;47.324;8.548;2023-07-09T15:14:46;8.68;;;4.25;;
32810;SDS011;65470;47.324;8.548;2023-07-09T15:17:12;7.97;;;4.38;;
32810;SDS011;65470;47.324;8.548;2023-07-09T15:19:38;10.93;;;5.03;;
32810;SDS011;65470;47.324;8.548;2023-07-09T15:22:04;6.22;;;3.55;;
32810;SDS011;65470;47.324;8.548;2023-07-09T15:24:31;5.13;;;3.75;;
32810;SDS011;65470;47.324;8.548;2023-07-09T15:26:59;9.40;;;4.25;;
32810;SDS011;65470;47.324;8.548;2023-07-09T15:29:26;5.82;;;3.63;;
32810;SDS011;65470;47.324;8.548;2023-07-09T15:31:52;7.90;;;4.28;;
32810;SDS011;65470;47.324;8.548;2023-07-09T15:34:18;7.55;;;4.38;;
32810;SDS011;65470;47.324;8.548;2023-07-09T15:36:48;5.93;;;3.80;;
32810;SDS011;65470;47.324;8.548;2023-07-09T15:39:16;6.88;;;3.80;;
32810;SDS011;65470;47.324;8.548;2023-07-09T15:41:42;9.02;;;4.20;;
32810;SDS011;65470;47.324;8.548;2023-07-09T15:44:12;5.78;;;4.10;;
32810;SDS011;65470;47.324;8.548;2023-07-09T15:46:39;8.73;;;4.10;;
32810;SDS011;65470;47.324;8.548;2023-07-09T15:49:07;10.68;;;3.88;;
32810;SDS011;65470;47.324;8.548;2023-07-09T15:51:36;10.07;;;4.72;;
32810;SDS011;65470;47.324;8.548;2023-07-09T15:54:04;7.13;;;4.45;;
32810;SDS011;65470;47.324;8.548;2023-07-09T15:56:40;6.35;;;4.10;;
32810;SDS011;65470;47.324;8.548;2023-07-09T15:59:07;10.65;;;4.47;;